Time;durP1;ratioP1;P1;durP2;ratioP2;P2;SDS_P1;SDS_P2;PMS_P1;PMS_P2;Temp;Humidity;BMP_temperature;BMP_pressure;BME280_temperature;BME280_humidity;BME280_pressure;Samples;Min_cycle;Max_cycle;Signal;HPM_P1;HPM_P2
2023/03/05 00:01:23;;;;;;;10.43;2.33;;;5.50;99.90;;;;;;5026037;28;20033;-49
2023/03/05 00:03:49;;;;;;;18.58;2.78;;;5.60;99.90;;;;;;5016937;28;20121;-51
2023/03/05 00:06:16;;;;;;;13.35;2.40;;;5.50;99.90;;;;;;5033361;28;20128;-50
2023/03/05 00:08:41;;;;;;;15.07;2.83;;;5.40;99.90;;;;;;5026302;28;20036;-52
2023/03/05 00:11:10;;;;;;;12.07;2.80;;;5.60;99.90;;;;;;5027401;28;20029;-50
2023/03/05 00:13:36;;;;;;;10.38;2.53;;;5.40;99.90;;;;;;5027396;28;20508;-51
2023/03/05 00:16:05;;;;;;;8.43;2.22;;;5.20;99.90;;;;;;5025444;28;20087;-47
2023/03/05 00:18:31;;;;;;;17.65;2.60;;;5.10;99.90;;;;;;5030873;28;20556;-51
2023/03/05 00:20:56;;;;;;;17.13;3.25;;;5.20;99.90;;;;;;5029838;28;20132;-49
2023/03/05 00:23:22;;;;;;;15.30;2.50;;;5.40;99.90;;;;;;5011707;28;20113;-52
2023/03/05 00:25:48;;;;;;;14.00;2.85;;;5.20;99.90;;;;;;5029809;28;20034;-52
2023/03/05 00:28:13;;;;;;;12.13;2.53;;;5.30;99.90;;;;;;5030679;28;20088;-49
2023/03/05 00:30:39;;;;;;;9.50;2.00;;;5.30;99.90;;;;;;5026949;28;20120;-50
2023/03/05 00:33:05;;;;;;;11.23;2.28;;;5.10;99.90;;;;;;5015645;28;20065;-51
2023/03/05 00:35:30;;;;;;;17.40;3.30;;;5.00;99.90;;;;;;5023208;28;20033;-52
2023/03/05 00:37:56;;;;;;;10.27;2.40;;;5.10;99.90;;;;;;5021360;28;20488;-49
2023/03/05 00:40:22;;;;;;;10.13;2.20;;;5.00;99.90;;;;;;5025970;28;20041;-48
2023/03/05 00:42:48;;;;;;;16.02;2.63;;;5.20;99.90;;;;;;5019264;28;20084;-52
2023/03/05 00:45:13;;;;;;;9.30;2.10;;;5.30;99.90;;;;;;5021588;28;20063;-52
2023/03/05 00:47:39;;;;;;;8.20;2.10;;;5.00;99.90;;;;;;5032982;28;20041;-51
2023/03/05 00:50:06;;;;;;;11.50;2.33;;;5.00;99.90;;;;;;5025895;28;20034;-53
2023/03/05 00:52:32;;;;;;;12.98;2.65;;;5.30;99.90;;;;;;5026107;28;20045;-52
2023/03/05 00:54:58;;;;;;;10.93;2.28;;;5.30;99.90;;;;;;5019158;28;20121;-50
2023/03/05 00:57:23;;;;;;;11.13;2.50;;;5.40;99.90;;;;;;5018701;28;20030;-50
2023/03/05 00:59:49;;;;;;;15.98;2.70;;;5.40;99.90;;;;;;5026543;28;20037;-53
2023/03/05 01:02:15;;;;;;;10.48;2.78;;;5.30;99.90;;;;;;5025988;28;20462;-50
2023/03/05 01:04:44;;;;;;;7.50;2.22;;;4.90;99.90;;;;;;5018844;28;20431;-52
2023/03/05 01:07:10;;;;;;;13.85;2.72;;;5.00;99.90;;;;;;5016395;28;20405;-51
2023/03/05 01:09:35;;;;;;;10.35;2.40;;;5.10;99.90;;;;;;5026096;28;20033;-49
2023/03/05 01:12:01;;;;;;;10.35;2.30;;;5.20;99.90;;;;;;5025755;28;20084;-48
2023/03/05 01:14:27;;;;;;;16.58;2.55;;;5.20;99.90;;;;;;5026285;28;20029;-49
2023/03/05 01:16:53;;;;;;;14.40;2.30;;;5.40;99.90;;;;;;5028208;28;20688;-52
2023/03/05 01:19:18;;;;;;;13.02;2.35;;;5.70;99.90;;;;;;5029170;28;20034;-53
2023/03/05 01:21:44;;;;;;;9.63;2.17;;;5.40;99.90;;;;;;5029344;28;20408;-52
2023/03/05 01:24:10;;;;;;;10.88;2.42;;;5.30;99.90;;;;;;5025434;28;20036;-52
2023/03/05 01:26:35;;;;;;;10.63;1.90;;;5.10;99.90;;;;;;5035090;28;20487;-51
2023/03/05 01:29:01;;;;;;;12.80;2.20;;;5.10;99.90;;;;;;5029576;28;20030;-52
2023/03/05 01:31:27;;;;;;;14.45;2.65;;;5.10;99.90;;;;;;5027232;28;20117;-52
2023/03/05 01:33:53;;;;;;;14.40;2.72;;;5.10;99.90;;;;;;5032793;28;20059;-52
2023/03/05 01:36:23;;;;;;;5.05;1.75;;;5.10;99.90;;;;;;5032401;28;20034;-52
2023/03/05 01:38:49;;;;;;;9.40;2.38;;;5.20;99.90;;;;;;5025681;28;20072;-53
2023/03/05 01:41:15;;;;;;;12.68;2.53;;;5.30;99.90;;;;;;5022585;28;20049;-52
2023/03/05 01:43:42;;;;;;;9.15;2.30;;;5.40;99.90;;;;;;5035881;28;20045;-53
2023/03/05 01:46:17;;;;;;;15.35;3.00;;;5.50;99.90;;;;;;5028687;28;20600;-51
2023/03/05 01:48:46;;;;;;;14.75;2.63;;;5.60;99.90;;;;;;5028986;28;20026;-53
2023/03/05 01:51:12;;;;;;;18.75;3.20;;;5.60;99.90;;;;;;5028343;28;20044;-52
2023/03/05 01:53:38;;;;;;;9.13;2.10;;;5.60;99.90;;;;;;5027962;28;20393;-51
2023/03/05 01:56:05;;;;;;;11.65;2.60;;;5.50;99.90;;;;;;5027784;28;20489;-52
2023/03/05 01:58:31;;;;;;;13.88;2.58;;;5.50;99.90;;;;;;5029120;28;20042;-53
2023/03/05 02:00:56;;;;;;;10.48;2.58;;;5.40;99.90;;;;;;5028178;28;20036;-53
2023/03/05 02:03:24;;;;;;;10.38;2.33;;;5.40;99.90;;;;;;5025825;28;20030;-49
2023/03/05 02:05:49;;;;;;;10.35;2.90;;;5.40;99.90;;;;;;5028408;28;20140;-53
2023/03/05 02:08:18;;;;;;;15.13;3.15;;;5.40;99.90;;;;;;5019655;28;20108;-53
2023/03/05 02:10:56;;;;;;;12.18;2.40;;;5.50;99.90;;;;;;5027757;28;20038;-52
2023/03/05 02:13:25;;;;;;;13.88;3.45;;;5.40;99.90;;;;;;5027011;28;20563;-53
2023/03/05 02:15:52;;;;;;;7.38;2.75;;;5.20;99.90;;;;;;5035763;28;20030;-52
2023/03/05 02:18:19;;;;;;;12.93;2.90;;;5.00;99.90;;;;;;5028012;28;20041;-49
2023/03/05 02:20:52;;;;;;;10.20;2.42;;;4.90;99.90;;;;;;5042922;28;20029;-53
2023/03/05 02:23:21;;;;;;;14.82;3.33;;;4.80;99.90;;;;;;5027149;28;20245;-52
2023/03/05 02:25:47;;;;;;;13.18;2.42;;;5.00;99.90;;;;;;5027613;28;20045;-52
2023/03/05 02:28:21;;;;;;;9.45;2.50;;;5.10;99.90;;;;;;5026877;28;20385;-52
2023/03/05 02:30:46;;;;;;;8.98;2.47;;;5.10;99.90;;;;;;5028924;28;20037;-52
2023/03/05 02:33:14;;;;;;;9.52;2.53;;;4.80;99.90;;;;;;5020663;28;20600;-53
2023/03/05 02:35:39;;;;;;;11.73;3.05;;;4.80;99.90;;;;;;5022112;28;20572;-50
2023/03/05 02:38:05;;;;;;;9.40;1.98;;;4.80;99.90;;;;;;5028600;28;20053;-51
2023/03/05 02:40:30;;;;;;;10.80;2.00;;;4.70;99.90;;;;;;5026557;28;20390;-52
2023/03/05 02:42:56;;;;;;;9.82;2.45;;;4.80;99.90;;;;;;5023105;28;20037;-52
2023/03/05 02:45:22;;;;;;;15.85;2.35;;;4.80;99.90;;;;;;5026670;28;20037;-52
2023/03/05 02:47:47;;;;;;;9.05;2.60;;;4.90;99.90;;;;;;5023693;28;20042;-49
2023/03/05 02:50:13;;;;;;;9.57;1.90;;;5.10;99.90;;;;;;5028288;28;20033;-50
2023/03/05 02:52:39;;;;;;;11.35;2.63;;;5.00;99.90;;;;;;5024292;28;20050;-50
2023/03/05 02:55:05;;;;;;;7.70;1.92;;;4.90;99.90;;;;;;5027516;28;20030;-52
2023/03/05 02:57:31;;;;;;;9.40;2.28;;;4.80;99.90;;;;;;5022311;28;20049;-51
2023/03/05 02:59:57;;;;;;;6.82;2.10;;;5.00;99.90;;;;;;5027860;28;20034;-52
2023/03/05 03:02:22;;;;;;;10.73;2.60;;;5.10;99.90;;;;;;5036942;28;20040;-52
2023/03/05 03:04:48;;;;;;;10.07;2.55;;;5.30;99.90;;;;;;5027043;28;20055;-53
2023/03/05 03:07:14;;;;;;;8.10;2.10;;;5.40;99.90;;;;;;5016679;28;20036;-53
2023/03/05 03:09:42;;;;;;;10.23;2.50;;;5.20;99.90;;;;;;5031638;28;20040;-52
2023/03/05 03:12:08;;;;;;;12.05;2.30;;;5.10;99.90;;;;;;5033081;28;20033;-52
2023/03/05 03:14:38;;;;;;;9.15;2.55;;;5.00;99.90;;;;;;5027264;28;20033;-53
2023/03/05 03:17:05;;;;;;;12.23;2.83;;;4.80;99.90;;;;;;5030258;28;20525;-52
2023/03/05 03:19:31;;;;;;;10.98;2.55;;;4.80;99.90;;;;;;5027541;28;20400;-51
2023/03/05 03:21:56;;;;;;;14.45;3.28;;;5.10;99.90;;;;;;5027020;28;20034;-53
2023/03/05 03:24:22;;;;;;;12.38;2.60;;;5.00;99.90;;;;;;5027085;28;20091;-51
2023/03/05 03:26:48;;;;;;;11.80;2.92;;;5.00;99.90;;;;;;5025923;28;20061;-52
2023/03/05 03:29:15;;;;;;;9.27;2.38;;;5.20;99.90;;;;;;5026308;28;20053;-49
2023/03/05 03:31:41;;;;;;;15.50;2.90;;;5.10;99.90;;;;;;5027536;28;20061;-51
2023/03/05 03:34:06;;;;;;;11.05;2.72;;;5.00;99.90;;;;;;5012383;28;20064;-53
2023/03/05 03:36:33;;;;;;;12.68;3.17;;;5.00;99.90;;;;;;5026706;28;20263;-53
2023/03/05 03:38:59;;;;;;;10.63;2.92;;;5.00;99.90;;;;;;5020560;28;20092;-50
2023/03/05 03:41:24;;;;;;;11.98;2.55;;;5.00;99.90;;;;;;5018516;28;20025;-53
2023/03/05 03:43:50;;;;;;;9.25;2.50;;;5.00;99.90;;;;;;5025911;28;20037;-51
2023/03/05 03:46:15;;;;;;;11.05;2.75;;;5.10;99.90;;;;;;5025246;28;20052;-52
2023/03/05 03:48:41;;;;;;;14.38;2.67;;;5.10;99.90;;;;;;5027394;28;20555;-48
2023/03/05 03:51:07;;;;;;;12.07;2.83;;;4.90;99.90;;;;;;5024982;28;20030;-49
2023/03/05 03:53:32;;;;;;;7.95;2.63;;;4.90;99.90;;;;;;5025850;28;20083;-52
2023/03/05 03:55:58;;;;;;;11.90;2.85;;;4.90;99.90;;;;;;5014218;28;20572;-52
2023/03/05 03:58:24;;;;;;;14.02;2.58;;;5.10;99.90;;;;;;5026254;28;20029;-51
2023/03/05 04:00:50;;;;;;;6.88;2.15;;;5.10;99.90;;;;;;5024062;28;20037;-49
2023/03/05 04:03:16;;;;;;;14.55;2.97;;;5.10;99.90;;;;;;5019933;28;20032;-52
2023/03/05 04:05:41;;;;;;;14.27;2.85;;;5.00;99.90;;;;;;5026638;28;20045;-52
2023/03/05 04:08:10;;;;;;;14.43;3.33;;;5.20;99.90;;;;;;5028498;28;20095;-52
2023/03/05 04:10:38;;;;;;;8.05;2.65;;;5.30;99.90;;;;;;5023720;28;20057;-52
2023/03/05 04:13:04;;;;;;;11.95;2.80;;;5.10;99.90;;;;;;5015764;28;20041;-53
2023/03/05 04:15:30;;;;;;;11.32;2.65;;;5.00;99.90;;;;;;5037423;28;20445;-53
2023/03/05 04:17:55;;;;;;;11.55;2.58;;;5.10;99.90;;;;;;5026609;28;20594;-52
2023/03/05 04:20:21;;;;;;;10.45;2.80;;;5.20;99.90;;;;;;5035921;28;20534;-52
2023/03/05 04:22:46;;;;;;;14.95;2.70;;;5.10;99.90;;;;;;5025914;28;20025;-52
2023/03/05 04:25:12;;;;;;;11.55;3.00;;;5.20;99.90;;;;;;5025777;28;20037;-51
2023/03/05 04:27:39;;;;;;;14.23;2.92;;;5.10;99.90;;;;;;5025500;28;20080;-52
2023/03/05 04:30:05;;;;;;;9.88;2.50;;;5.20;99.90;;;;;;5013263;28;20030;-53
2023/03/05 04:32:31;;;;;;;9.52;3.00;;;5.10;99.90;;;;;;5026445;28;20050;-51
2023/03/05 04:34:56;;;;;;;9.93;2.97;;;5.10;99.90;;;;;;5020160;28;20346;-53
2023/03/05 04:37:26;;;;;;;12.98;2.88;;;5.10;99.90;;;;;;5026075;28;20029;-51
2023/03/05 04:39:52;;;;;;;15.63;2.85;;;5.20;99.90;;;;;;5021911;28;20030;-53
2023/03/05 04:42:19;;;;;;;11.32;3.00;;;5.40;99.90;;;;;;5023435;28;20033;-51
2023/03/05 04:44:48;;;;;;;9.43;2.35;;;5.60;99.90;;;;;;5036671;28;20448;-53
2023/03/05 04:47:15;;;;;;;14.55;3.75;;;5.40;99.90;;;;;;5025890;28;20132;-52
2023/03/05 04:49:40;;;;;;;12.73;2.78;;;5.30;99.90;;;;;;5027103;28;20164;-53
2023/03/05 04:52:06;;;;;;;12.02;2.65;;;5.40;99.90;;;;;;5029747;28;20448;-51
2023/03/05 04:54:32;;;;;;;13.85;2.83;;;5.20;99.90;;;;;;5022527;28;20041;-53
2023/03/05 04:56:58;;;;;;;14.63;2.58;;;5.20;99.90;;;;;;5028203;28;20041;-53
2023/03/05 04:59:23;;;;;;;10.02;2.65;;;4.90;99.90;;;;;;5029568;28;20053;-53
2023/03/05 05:01:49;;;;;;;13.35;2.58;;;4.80;99.90;;;;;;5030396;28;20052;-52
2023/03/05 05:04:14;;;;;;;11.93;2.75;;;4.80;99.90;;;;;;5022911;28;20037;-48
2023/03/05 05:06:40;;;;;;;9.93;3.17;;;5.00;99.90;;;;;;5017708;28;20406;-49
2023/03/05 05:09:06;;;;;;;10.73;3.08;;;5.10;99.90;;;;;;5032560;28;20471;-53
2023/03/05 05:11:31;;;;;;;14.75;3.38;;;5.00;99.90;;;;;;5029613;28;20028;-53
2023/03/05 05:13:57;;;;;;;12.88;2.92;;;5.00;99.90;;;;;;5029377;28;20116;-52
2023/03/05 05:16:23;;;;;;;12.40;3.53;;;5.00;99.90;;;;;;5033873;28;20037;-51
2023/03/05 05:18:48;;;;;;;15.35;3.03;;;5.00;99.90;;;;;;5029614;28;20753;-52
2023/03/05 05:21:14;;;;;;;12.63;3.15;;;5.10;99.90;;;;;;5026361;28;20635;-50
2023/03/05 05:23:40;;;;;;;8.10;2.80;;;5.10;99.90;;;;;;5036216;28;20483;-52
2023/03/05 05:26:07;;;;;;;16.15;4.05;;;5.00;99.90;;;;;;5022806;28;20091;-51
2023/03/05 05:28:34;;;;;;;9.05;2.65;;;5.10;99.90;;;;;;5026177;28;20155;-49
2023/03/05 05:31:04;;;;;;;10.45;2.50;;;5.00;99.90;;;;;;5029919;28;20496;-53
2023/03/05 05:33:30;;;;;;;7.32;2.55;;;5.20;99.90;;;;;;5048592;28;20036;-53
2023/03/05 05:35:56;;;;;;;13.02;2.97;;;5.00;99.90;;;;;;5044347;28;20056;-50
2023/03/05 05:38:22;;;;;;;12.57;2.88;;;5.10;99.90;;;;;;5047798;28;20040;-52
2023/03/05 05:40:47;;;;;;;14.05;3.30;;;5.20;99.90;;;;;;5044170;28;20234;-52
2023/03/05 05:43:13;;;;;;;13.07;3.20;;;5.00;99.90;;;;;;5046682;28;20407;-53
2023/03/05 05:45:39;;;;;;;13.43;3.10;;;5.10;99.90;;;;;;5049596;28;20128;-52
2023/03/05 05:48:04;;;;;;;11.77;3.10;;;5.00;99.90;;;;;;5048657;28;20040;-52
2023/03/05 05:50:30;;;;;;;15.50;3.08;;;4.90;99.90;;;;;;5048413;28;21411;-52
2023/03/05 05:52:55;;;;;;;9.07;3.53;;;4.90;99.90;;;;;;5048223;28;20071;-51
2023/03/05 05:55:21;;;;;;;14.40;3.70;;;5.00;99.90;;;;;;5047667;28;20075;-51
2023/03/05 05:57:47;;;;;;;10.30;2.80;;;4.90;99.90;;;;;;5042521;28;20037;-51
2023/03/05 06:00:13;;;;;;;15.05;3.88;;;4.80;99.90;;;;;;5048547;28;20033;-52
2023/03/05 06:02:42;;;;;;;14.55;3.90;;;4.80;99.90;;;;;;5047247;28;20036;-52
2023/03/05 06:05:10;;;;;;;13.18;3.38;;;4.80;99.90;;;;;;5046830;28;20045;-53
2023/03/05 06:07:36;;;;;;;18.77;3.80;;;4.90;99.90;;;;;;5052429;28;20040;-52
2023/03/05 06:10:02;;;;;;;14.15;3.67;;;5.00;99.90;;;;;;5050690;28;20760;-53
2023/03/05 06:12:28;;;;;;;10.98;3.25;;;5.00;99.90;;;;;;5047269;28;20190;-51
2023/03/05 06:14:53;;;;;;;10.02;3.22;;;5.00;99.90;;;;;;5047884;28;20119;-52
2023/03/05 06:17:19;;;;;;;12.10;3.55;;;5.00;99.90;;;;;;5048273;28;20459;-53
2023/03/05 06:19:45;;;;;;;12.43;4.15;;;5.20;99.90;;;;;;5048411;28;20036;-53
2023/03/05 06:22:11;;;;;;;10.05;3.70;;;4.90;99.90;;;;;;5046247;28;20396;-50
2023/03/05 06:24:37;;;;;;;16.02;3.80;;;4.90;99.90;;;;;;5042581;28;20132;-52
2023/03/05 06:27:04;;;;;;;13.18;4.05;;;4.90;99.90;;;;;;5046896;28;20044;-53
2023/03/05 06:29:29;;;;;;;10.88;3.42;;;4.90;99.90;;;;;;5047248;28;20060;-53
2023/03/05 06:31:55;;;;;;;11.40;3.42;;;4.90;99.90;;;;;;5046550;28;20072;-53
2023/03/05 06:34:21;;;;;;;16.40;4.00;;;5.00;99.90;;;;;;5048430;28;20225;-51
2023/03/05 06:36:46;;;;;;;11.20;3.55;;;4.90;99.90;;;;;;5034971;28;20033;-52
2023/03/05 06:39:12;;;;;;;11.70;3.45;;;4.90;99.90;;;;;;5047394;28;20037;-51
2023/03/05 06:41:37;;;;;;;12.05;3.75;;;5.00;99.90;;;;;;5037306;28;20041;-53
2023/03/05 06:44:03;;;;;;;15.27;4.00;;;4.90;99.90;;;;;;5047123;28;20037;-52
2023/03/05 06:46:31;;;;;;;14.80;3.70;;;4.90;99.90;;;;;;5047833;28;20491;-52
2023/03/05 06:48:59;;;;;;;10.18;4.03;;;5.20;99.90;;;;;;5028389;28;20033;-52
2023/03/05 06:51:27;;;;;;;10.27;4.03;;;5.20;99.90;;;;;;5047177;28;20033;-52
2023/03/05 06:53:54;;;;;;;8.85;3.88;;;5.20;99.90;;;;;;5047820;28;20562;-52
2023/03/05 06:56:21;;;;;;;15.77;4.47;;;5.10;99.90;;;;;;5046543;28;20055;-52
2023/03/05 06:58:49;;;;;;;11.75;4.10;;;5.10;99.90;;;;;;5046924;28;20493;-52
2023/03/05 07:01:15;;;;;;;9.27;4.13;;;5.30;99.90;;;;;;5039768;28;20036;-49
2023/03/05 07:03:42;;;;;;;10.95;4.10;;;5.20;99.90;;;;;;5041344;28;20036;-51
2023/03/05 07:06:11;;;;;;;12.48;4.10;;;5.20;99.90;;;;;;5045327;28;20116;-53
2023/03/05 07:08:37;;;;;;;15.95;4.32;;;5.30;99.90;;;;;;5056721;28;20032;-52
2023/03/05 07:11:07;;;;;;;13.52;3.97;;;5.20;99.90;;;;;;5051214;28;20155;-52
2023/03/05 07:13:33;;;;;;;13.57;4.18;;;5.30;99.90;;;;;;5045838;28;20511;-53
2023/03/05 07:15:58;;;;;;;11.70;4.63;;;5.30;99.90;;;;;;5047201;28;20021;-54
2023/03/05 07:18:24;;;;;;;16.45;5.32;;;5.20;99.90;;;;;;5060389;28;20523;-53
2023/03/05 07:20:50;;;;;;;14.75;4.80;;;5.30;99.90;;;;;;5047054;28;20037;-54
2023/03/05 07:23:15;;;;;;;13.13;4.63;;;5.30;99.90;;;;;;5045592;28;20025;-53
2023/03/05 07:25:41;;;;;;;15.88;4.90;;;5.50;99.90;;;;;;5046357;28;20501;-49
2023/03/05 07:28:07;;;;;;;13.43;4.72;;;5.40;99.90;;;;;;5046351;28;20513;-53
2023/03/05 07:30:33;;;;;;;12.82;4.13;;;5.60;99.90;;;;;;5045570;28;20033;-54
2023/03/05 07:32:59;;;;;;;15.40;4.68;;;5.70;99.90;;;;;;5041810;28;20395;-54
2023/03/05 07:35:25;;;;;;;12.07;4.57;;;5.70;99.90;;;;;;5055023;28;20035;-54
2023/03/05 07:37:51;;;;;;;14.50;5.13;;;5.70;99.90;;;;;;5040313;28;20120;-54
2023/03/05 07:40:16;;;;;;;14.85;4.40;;;5.70;99.90;;;;;;5030757;28;20033;-55
2023/03/05 07:42:42;;;;;;;13.30;4.22;;;5.70;99.90;;;;;;5027768;28;20096;-55
2023/03/05 07:45:08;;;;;;;14.18;4.50;;;5.70;99.90;;;;;;5046654;28;20102;-55
2023/03/05 07:47:34;;;;;;;13.55;4.90;;;5.60;99.90;;;;;;5060442;28;20039;-55
2023/03/05 07:50:00;;;;;;;15.10;4.57;;;5.60;99.90;;;;;;5041279;28;20056;-55
2023/03/05 07:52:26;;;;;;;14.95;4.55;;;5.40;99.90;;;;;;5036319;28;20065;-55
2023/03/05 07:54:52;;;;;;;17.50;4.45;;;5.40;99.90;;;;;;5046673;28;20056;-55
2023/03/05 07:57:17;;;;;;;16.17;4.90;;;5.20;99.90;;;;;;5044988;28;20111;-56
2023/03/05 07:59:43;;;;;;;14.63;4.60;;;5.10;99.90;;;;;;5047147;28;20029;-53
2023/03/05 08:02:13;;;;;;;15.23;5.50;;;5.00;99.90;;;;;;5034642;28;20091;-55
2023/03/05 08:04:41;;;;;;;15.27;4.68;;;5.20;99.90;;;;;;5047312;28;20051;-54
2023/03/05 08:07:06;;;;;;;17.42;4.95;;;5.30;99.90;;;;;;5040377;28;20038;-53
2023/03/05 08:09:32;;;;;;;14.35;4.63;;;5.30;99.90;;;;;;5057422;28;20028;-55
2023/03/05 08:11:57;;;;;;;13.40;4.30;;;5.30;99.90;;;;;;5045456;28;20037;-54
2023/03/05 08:14:23;;;;;;;11.68;4.35;;;5.20;99.90;;;;;;5043710;28;20033;-55
2023/03/05 08:16:51;;;;;;;15.32;5.20;;;5.30;99.90;;;;;;5046050;28;20071;-55
2023/03/05 08:19:18;;;;;;;14.45;4.35;;;5.40;99.90;;;;;;5046276;28;20048;-54
2023/03/05 08:21:44;;;;;;;14.10;4.78;;;5.40;99.90;;;;;;5043497;28;20091;-55
2023/03/05 08:24:11;;;;;;;23.35;5.38;;;5.40;99.90;;;;;;5043719;28;20378;-54
2023/03/05 08:26:38;;;;;;;16.10;4.97;;;5.40;99.90;;;;;;5042491;28;20075;-54
2023/03/05 08:29:04;;;;;;;22.58;5.60;;;5.50;99.90;;;;;;5050827;28;20037;-54
2023/03/05 08:31:31;;;;;;;16.50;5.45;;;5.60;99.90;;;;;;5047776;28;20026;-54
2023/03/05 08:33:59;;;;;;;12.57;5.10;;;5.50;99.90;;;;;;5035783;28;20492;-54
2023/03/05 08:36:24;;;;;;;12.60;5.18;;;5.40;99.90;;;;;;5033741;28;20030;-55
2023/03/05 08:38:50;;;;;;;10.48;4.68;;;5.40;99.90;;;;;;5037458;28;20448;-54
2023/03/05 08:41:17;;;;;;;13.18;4.38;;;5.20;99.90;;;;;;5045056;28;20025;-54
2023/03/05 08:43:43;;;;;;;15.95;5.20;;;5.30;99.90;;;;;;5045679;28;20048;-54
2023/03/05 08:46:11;;;;;;;17.90;5.30;;;5.40;99.90;;;;;;5045679;28;20029;-54
2023/03/05 08:48:37;;;;;;;16.60;7.25;;;5.50;99.90;;;;;;5045714;28;20558;-54
2023/03/05 08:51:08;;;;;;;12.93;4.88;;;5.30;99.90;;;;;;5043125;28;20483;-54
2023/03/05 08:53:34;;;;;;;18.50;5.63;;;5.30;99.90;;;;;;5046181;28;20531;-53
2023/03/05 08:55:59;;;;;;;14.32;5.55;;;5.40;99.90;;;;;;5026956;28;20064;-51
2023/03/05 08:58:25;;;;;;;18.10;5.28;;;5.40;99.90;;;;;;5044349;28;20049;-53
2023/03/05 09:00:51;;;;;;;12.43;4.88;;;5.40;99.90;;;;;;5045531;28;20025;-53
2023/03/05 09:03:17;;;;;;;15.15;5.22;;;5.20;99.90;;;;;;5043429;28;20445;-51
2023/03/05 09:05:43;;;;;;;16.58;5.20;;;5.40;99.90;;;;;;5049391;28;20052;-53
2023/03/05 09:08:09;;;;;;;9.25;4.35;;;5.60;99.90;;;;;;5049568;28;20033;-53
2023/03/05 09:10:35;;;;;;;13.07;5.22;;;5.70;99.90;;;;;;5048115;28;20456;-54
2023/03/05 09:13:02;;;;;;;9.82;4.53;;;5.90;99.90;;;;;;5033973;28;20037;-53
2023/03/05 09:15:27;;;;;;;11.80;4.22;;;5.70;99.90;;;;;;5044738;28;20570;-52
2023/03/05 09:17:53;;;;;;;9.63;4.88;;;5.60;99.90;;;;;;5045736;28;20341;-53
2023/03/05 09:20:19;;;;;;;10.70;4.40;;;5.40;99.90;;;;;;5043561;28;20065;-54
2023/03/05 09:22:44;;;;;;;9.32;4.72;;;5.60;99.90;;;;;;5045728;28;20043;-52
2023/03/05 09:25:11;;;;;;;9.18;4.45;;;5.60;99.90;;;;;;5021883;28;20048;-52
2023/03/05 09:27:37;;;;;;;9.07;4.45;;;5.40;99.90;;;;;;5044161;28;20562;-51
2023/03/05 09:30:04;;;;;;;16.80;6.45;;;5.60;99.90;;;;;;5045608;28;20064;-53
2023/03/05 09:32:30;;;;;;;8.07;4.70;;;5.50;99.90;;;;;;5040877;28;20033;-53
2023/03/05 09:34:56;;;;;;;10.48;4.22;;;5.70;99.90;;;;;;5045051;28;20459;-54
2023/03/05 09:37:22;;;;;;;14.50;5.25;;;5.90;99.90;;;;;;5048426;28;20033;-53
2023/03/05 09:39:48;;;;;;;8.43;4.47;;;6.10;99.90;;;;;;5049530;28;20357;-52
2023/03/05 09:42:23;;;;;;;8.18;4.20;;;6.10;99.90;;;;;;5047654;28;20238;-53
2023/03/05 09:45:24;;;;;;;11.23;4.35;;;6.10;99.90;;;;;;5048193;28;20039;-53
2023/03/05 09:47:59;;;;;;;11.73;4.32;;;6.10;99.90;;;;;;5041097;28;20518;-52
2023/03/05 09:50:47;;;;;;;10.30;4.18;;;5.60;99.90;;;;;;5039087;28;20074;-52
2023/03/05 09:53:34;;;;;;;6.80;3.90;;;5.60;99.90;;;;;;5039995;28;20527;-53
2023/03/05 09:56:28;;;;;;;6.78;4.10;;;5.60;99.90;;;;;;5047667;28;20493;-52
2023/03/05 09:59:01;;;;;;;9.57;4.25;;;5.80;99.90;;;;;;5035723;28;20033;-52
2023/03/05 10:01:41;;;;;;;8.85;4.50;;;5.70;99.90;;;;;;5040761;28;20508;-51
2023/03/05 10:04:24;;;;;;;6.43;3.90;;;5.90;99.90;;;;;;5037786;28;20039;-53
2023/03/05 10:07:04;;;;;;;8.25;3.97;;;6.00;99.90;;;;;;5041837;28;20428;-52
2023/03/05 10:09:44;;;;;;;5.03;3.65;;;5.80;99.90;;;;;;5047777;28;20052;-53
2023/03/05 10:12:26;;;;;;;6.05;3.50;;;6.00;99.90;;;;;;5048677;28;20029;-53
2023/03/05 10:14:53;;;;;;;5.13;3.40;;;6.00;99.90;;;;;;5042315;28;20481;-53
2023/03/05 10:17:43;;;;;;;9.68;3.40;;;5.90;99.90;;;;;;5038137;28;20025;-53
2023/03/05 10:20:33;;;;;;;6.40;3.40;;;6.00;99.90;;;;;;5045378;28;20033;-53
2023/03/05 10:23:07;;;;;;;6.25;3.35;;;6.00;99.90;;;;;;5048118;28;20550;-52
2023/03/05 10:25:44;;;;;;;;;;;6.20;99.90;;;;;;5044951;28;20400;-53
2023/03/05 10:28:16;;;;;;;6.30;3.40;;;6.00;99.90;;;;;;5022786;28;20145;-52
2023/03/05 10:30:57;;;;;;;5.50;3.50;;;6.30;99.90;;;;;;5048607;28;20515;-49
2023/03/05 10:33:22;;;;;;;6.90;3.60;;;6.40;99.90;;;;;;5037784;28;20388;-50
2023/03/05 10:36:06;;;;;;;5.40;3.35;;;6.30;99.90;;;;;;5037367;28;20048;-51
2023/03/05 10:38:46;;;;;;;;;;;6.40;99.90;;;;;;5034279;28;20068;-51
2023/03/05 10:41:19;;;;;;;4.22;3.10;;;6.30;99.90;;;;;;5020573;28;19913;-49
2023/03/05 10:44:14;;;;;;;10.00;3.13;;;6.40;99.90;;;;;;5025515;28;20038;-53
2023/03/05 10:46:40;;;;;;;7.35;3.38;;;6.60;99.90;;;;;;5025982;28;20044;-52
2023/03/05 10:49:17;;;;;;;9.38;3.67;;;6.70;99.90;;;;;;5024007;28;20038;-54
2023/03/05 10:52:02;;;;;;;11.70;3.63;;;6.50;99.90;;;;;;5026120;28;20367;-49
2023/03/05 10:54:31;;;;;;;5.97;2.97;;;6.20;99.90;;;;;;5044968;28;20455;-54
2023/03/05 10:57:04;;;;;;;8.75;3.83;;;6.10;99.90;;;;;;5046502;28;20106;-51
2023/03/05 10:59:31;;;;;;;9.25;4.13;;;6.20;99.90;;;;;;5046525;28;20029;-50
2023/03/05 11:02:07;;;;;;;6.93;4.00;;;6.00;99.90;;;;;;5046716;28;20078;-53
2023/03/05 11:04:35;;;;;;;7.95;3.70;;;6.10;99.90;;;;;;5040190;28;20045;-52
2023/03/05 11:07:14;;;;;;;8.77;3.85;;;5.90;99.90;;;;;;5037844;28;20033;-50
2023/03/05 11:10:03;;;;;;;7.63;3.97;;;5.90;99.90;;;;;;5031830;28;20025;-52
2023/03/05 11:12:37;;;;;;;5.25;2.50;;;6.10;99.90;;;;;;5034653;28;20045;-52
2023/03/05 11:15:26;;;;;;;4.75;2.83;;;6.00;99.90;;;;;;5045403;28;20041;-49
2023/03/05 11:18:15;;;;;;;5.88;2.45;;;5.80;99.90;;;;;;5047119;28;20106;-52
2023/03/05 11:20:41;;;;;;;7.85;2.90;;;5.80;99.90;;;;;;5047450;28;20029;-51
2023/03/05 11:23:19;;;;;;;6.90;3.13;;;5.80;99.90;;;;;;5048219;28;20033;-53
2023/03/05 11:26:10;;;;;;;6.88;3.38;;;6.20;99.90;;;;;;5043931;28;20132;-52
2023/03/05 11:28:51;;;;;;;8.68;5.00;;;6.50;99.90;;;;;;5042014;28;20207;-53
2023/03/05 11:31:20;;;;;;;8.98;5.63;;;6.90;99.90;;;;;;5045721;28;20458;-52
2023/03/05 11:34:19;;;;;;;10.10;5.32;;;7.10;99.90;;;;;;5042099;28;20068;-51
2023/03/05 11:36:57;;;;;;;7.30;5.53;;;7.00;99.90;;;;;;5038729;28;20246;-53
2023/03/05 11:39:24;;;;;;;8.77;5.82;;;7.10;99.90;;;;;;5043084;28;20366;-54
2023/03/05 11:42:24;;;;;;;11.85;5.72;;;7.10;99.90;;;;;;5042435;28;20388;-54
2023/03/05 11:44:56;;;;;;;8.35;5.05;;;6.90;99.90;;;;;;4987329;28;20521;-52
2023/03/05 11:47:30;;;;;;;9.63;5.10;;;6.50;99.90;;;;;;5045675;28;20044;-54
2023/03/05 11:50:24;;;;;;;8.38;5.38;;;6.40;99.90;;;;;;5046797;28;20431;-53
2023/03/05 11:53:01;;;;;;;11.25;5.68;;;6.60;99.90;;;;;;5032534;28;20056;-54
2023/03/05 11:55:35;;;;;;;6.43;4.85;;;6.90;99.90;;;;;;5047081;28;20045;-52
2023/03/05 11:58:25;;;;;;;8.80;5.47;;;6.90;99.90;;;;;;5020540;28;20033;-51
2023/03/05 12:00:51;;;;;;;10.98;5.70;;;6.90;99.90;;;;;;5043943;28;20268;-54
2023/03/05 12:03:23;;;;;;;9.57;5.10;;;7.00;99.90;;;;;;5038070;28;20064;-53
2023/03/05 12:05:55;;;;;;;7.70;4.80;;;6.70;99.90;;;;;;5045119;28;20155;-53
2023/03/05 12:08:34;;;;;;;8.20;5.05;;;6.70;99.90;;;;;;5044950;28;20029;-54
2023/03/05 12:11:05;;;;;;;8.00;4.82;;;6.80;99.90;;;;;;5045700;28;20037;-52
2023/03/05 12:13:39;;;;;;;8.40;4.50;;;6.90;99.90;;;;;;5031674;28;20159;-53
2023/03/05 12:16:32;;;;;;;7.57;3.95;;;7.00;99.90;;;;;;5013638;28;20034;-53
2023/03/05 12:19:01;;;;;;;8.93;4.05;;;6.70;99.90;;;;;;5021582;28;20038;-50
2023/03/05 12:21:39;;;;;;;4.72;3.78;;;6.60;99.90;;;;;;5026711;28;20432;-54
2023/03/05 12:24:23;;;;;;;7.18;3.88;;;6.70;99.90;;;;;;5023690;28;20045;-54
2023/03/05 12:26:51;;;;;;;6.53;3.70;;;6.70;99.90;;;;;;5019164;28;20112;-54
2023/03/05 12:29:29;;;;;;;7.60;3.88;;;6.60;99.90;;;;;;5022876;28;20048;-52
2023/03/05 12:31:56;;;;;;;5.88;3.67;;;6.60;99.90;;;;;;5025814;28;20280;-52
2023/03/05 12:34:38;;;;;;;5.97;3.30;;;6.50;99.90;;;;;;5018358;28;20151;-54
2023/03/05 12:37:11;;;;;;;5.80;3.20;;;6.40;99.90;;;;;;5025210;28;20564;-52
2023/03/05 12:39:49;;;;;;;8.45;3.20;;;6.30;99.90;;;;;;5025641;28;20493;-52
2023/03/05 12:42:27;;;;;;;8.05;3.78;;;6.30;99.90;;;;;;5022802;28;20029;-52
2023/03/05 12:45:30;;;;;;;5.20;3.75;;;6.40;99.90;;;;;;5022036;28;20071;-53
2023/03/05 12:47:55;;;;;;;4.13;2.58;;;6.90;99.90;;;;;;4980073;28;20516;-53
2023/03/05 12:50:26;;;;;;;3.72;2.20;;;6.80;99.90;;;;;;5023767;28;20029;-51
2023/03/05 12:53:11;;;;;;;6.28;2.63;;;6.60;99.90;;;;;;5024384;28;20509;-52
2023/03/05 12:55:44;;;;;;;4.93;2.33;;;6.40;99.90;;;;;;5045078;28;20056;-53
2023/03/05 12:58:43;;;;;;;9.15;2.97;;;6.60;99.90;;;;;;5039929;28;20030;-51
2023/03/05 13:01:34;;;;;;;6.63;2.53;;;6.70;99.90;;;;;;5041652;28;20028;-51